Aérodrome :
LOGIN :

S'inscrire | Disclaimer

   EN    FR    IT 

 










Légende :    VFR   VFR Marginal   IFR   IFR Intensif   IFR Très Intensif
Visi : 
Plafond : 
>= 8 km
>= 3000ft
5 à 8 km
1000 à 3000 ft
1500m à 5 km
500 à 1000 ft
800 à 1500m
200 à 500 ft
< 800m
< 200 ft
Symboles :   Orages  Brouillard  Fortes neiges  Fortes précipitations  Vent > 20 kt
SIGMETs :   Divers  Orages  Givrage  Turbulence  Onde Orograph.  Cendres Volcan.






- Altitude de l'aérodrome : 1367 ft
- Code IATA : FDH


EDNY - Friedrichshafen

DERNIER METAR :
  • 030850Z VRB02KT CAVOK 21/10 Q1009

METARs EXPIRÉS :
  • 030820Z 22003KT 180V250 CAVOK 20/10 Q1009
  • 030750Z VRB02KT CAVOK 19/11 Q1009
  • 030720Z VRB02KT CAVOK 19/11 Q1009
  • 030650Z VRB02KT CAVOK 18/11 Q1009
  • 030620Z 06002KT CAVOK 15/10 Q1010
  • 030550Z 07004KT CAVOK 13/10 Q1010

TAF TAF EDNY
Valide du 03 à 06h jusqu'au 04 à 06h UTC


030500Z 0306/0406 VRB03KT CAVOK
BECMG 0307/0309 24006KT
PROB30
TEMPO 0316/0320 26020G35KT TSRA SCT070CB
BECMG 0318/0320 VRB03KT



MET'MAP, la Météo Aéronautique d'un coup d'oeil ! - Copyright ORBIFLY Décembre 2007 - Disclaimer

ORBIFLY MET'MAP TEAM :

Programmation & Développement : Alexandra Zaïnal
Sur une idée originale de : Baudouin d'Aumeries
Assistance à la programmation : Marc-Olivier Méhu
Soutien technique & logistique : Manuel Goepfert

Contact : metmap@orbifly.com




SOURCES & CREDITS :

   NOAA